If you wish to contribute or participate in the discussions about articles you are invited to join SKYbrary as a registered user

 Actions

Nordholz Naval Airbase

From SKYbrary Wiki

ETMN
Airport
ICAO: ETMN
Summary
Name Nordholz Naval Airbase
Region Europe
Territory Germany DE.gif
Location Nordholz, Lower Saxony
Serving
Coordinates 53° 46' 2.32" N, 8° 39' 29.53" E
Runways
Designator Length Width Surface ROPS
8/26 2439 m8,001.969 ft
45 m147.638 ft
CON /


METAR
Observation ETMN 200020Z 28003KT 9999 FEW030 BKN280 08/07 Q1029 BLU+
Station Nordholz
Date/Time 20 September 2019 00:20:00
Wind direction 280°
Wind speed 03 kts
Lowest cloud amount few clouds
Temperature 8°C
Dew point 7°C
Humidity 93%
QNH 1029 hPa
Weather condition n/a

Nordholz Naval Airbase

ICAO: ETMN IATA: ---

Description

Nordholz Naval Airbase is a German Naval Air base located near the town of Nordholz in Lower Saxony, 25 km13.499 nm
25,000 m
82,020.997 ft
north of Bremerhaven, and 12 km6.479 nm
12,000 m
39,370.079 ft
southwest of Cuxhaven.

Maps

Terrain

Loading map...

Airport Layout

Loading map...



Accidents & Serious Incidents at or in vicinity of ETMN

None on SKYbrary